Time;durP1;ratioP1;P1;durP2;ratioP2;P2;SDS_P1;SDS_P2;PMS_P1;PMS_P2;Temp;Humidity;BMP_temperature;BMP_pressure;BME280_temperature;BME280_humidity;BME280_pressure;Samples;Min_cycle;Max_cycle;Signal;HPM_P1;HPM_P2
2022/06/02 00:01:30;;;;;;;;;;;;;;;16.78;42.45;99980.91;1088323;47;20003;-82
2022/06/02 00:02:36;;;;;;;;;;;;;;;16.71;43.00;99974.56;1088240;54;19943;-80
2022/06/02 00:03:44;;;;;;;;;;;;;;;16.67;43.00;99983.03;1088404;54;19926;-84
2022/06/02 00:04:50;;;;;;;;;;;;;;;16.70;42.97;99987.22;1088216;54;19950;-79
2022/06/02 00:06:06;;;;;;;;;;;;;;;16.64;43.17;99994.19;1088160;54;19943;-83
2022/06/02 00:07:09;;;;;;;;;;;;;;;16.61;43.40;99994.59;1088319;54;19942;-83
2022/06/02 00:08:19;;;;;;;;;;;;;;;16.57;43.59;99992.44;1088629;54;19947;-81
2022/06/02 00:09:30;;;;;;;;;;;;;;;16.63;43.17;99997.91;1088486;54;19965;-80
2022/06/02 00:10:43;;;;;;;;;;;;;;;16.59;43.20;99996.63;1088658;54;19947;-80
2022/06/02 00:11:58;;;;;;;;;;;;;;;16.59;43.31;99993.94;1088607;54;19954;-80
2022/06/02 00:14:12;;;;;;;;;;;;;;;16.64;42.95;99990.66;1088346;54;19939;-83
2022/06/02 00:16:54;;;;;;;;;;;;;;;16.58;43.34;100003.03;1088504;54;20233;-79
2022/06/02 00:18:17;;;;;;;;;;;;;;;16.54;43.71;100004.41;1091019;46;19927;-82
2022/06/02 00:21:40;;;;;;;;;;;;;;;16.44;43.77;100006.53;1088188;54;19935;-83
2022/06/02 00:22:51;;;;;;;;;;;;;;;16.37;43.93;100001.91;1088785;54;20689;-85
2022/06/02 00:25:00;;;;;;;;;;;;;;;16.37;44.06;100006.47;1087547;54;19951;-81
2022/06/02 00:26:09;;;;;;;;;;;;;;;16.43;44.03;100005.72;1088481;54;19939;-81
2022/06/02 00:27:17;;;;;;;;;;;;;;;16.41;43.88;100010.47;1088563;54;19945;-82
2022/06/02 00:29:30;;;;;;;;;;;;;;;16.50;43.91;100008.53;1088040;54;20006;-81
2022/06/02 00:30:39;;;;;;;;;;;;;;;16.46;43.79;100009.91;1088646;54;20038;-83
2022/06/02 00:33:19;;;;;;;;;;;;;;;16.31;44.37;100018.81;1088426;54;19927;-86
2022/06/02 00:34:25;;;;;;;;;;;;;;;16.24;44.45;100023.28;1088409;54;21030;-81
2022/06/02 00:35:34;;;;;;;;;;;;;;;16.19;44.82;100021.13;1088157;54;19965;-79
2022/06/02 00:36:59;;;;;;;;;;;;;;;16.18;44.92;100029.38;1088067;54;19950;-80
2022/06/02 00:38:03;;;;;;;;;;;;;;;16.14;45.02;100025.41;1088133;54;19934;-79
2022/06/02 00:39:08;;;;;;;;;;;;;;;16.15;44.91;100018.97;1088150;54;19943;-82
2022/06/02 00:40:10;;;;;;;;;;;;;;;16.19;44.64;100014.88;1088085;54;19942;-81
2022/06/02 00:41:18;;;;;;;;;;;;;;;16.16;44.88;100017.94;1087933;54;19942;-83
2022/06/02 00:42:39;;;;;;;;;;;;;;;16.02;45.45;100020.44;1089892;46;19949;-83
2022/06/02 00:43:54;;;;;;;;;;;;;;;15.98;45.52;100013.72;1088349;54;19938;-83
2022/06/02 00:44:56;;;;;;;;;;;;;;;16.02;45.19;100020.44;1088261;54;20488;-81
2022/06/02 00:46:11;;;;;;;;;;;;;;;16.02;45.11;100016.88;1087935;54;20025;-83
2022/06/02 00:47:42;;;;;;;;;;;;;;;15.99;45.38;100017.25;1087781;54;19942;-81
2022/06/02 00:48:53;;;;;;;;;;;;;;;15.96;45.40;100020.31;1088294;54;19942;-82
2022/06/02 00:50:04;;;;;;;;;;;;;;;15.93;45.42;100018.81;1088408;54;19943;-83
2022/06/02 00:52:35;;;;;;;;;;;;;;;15.87;45.64;100024.94;1088822;54;19945;-84
2022/06/02 00:53:42;;;;;;;;;;;;;;;15.92;45.60;100025.22;1088011;54;19953;-81
2022/06/02 00:57:39;;;;;;;;;;;;;;;16.03;44.86;100030.19;1088014;54;19943;-79
2022/06/02 00:58:48;;;;;;;;;;;;;;;16.10;44.80;100024.06;1087981;54;19973;-81
2022/06/02 01:00:04;;;;;;;;;;;;;;;16.03;45.39;100024.81;1088628;39;20050;-80
2022/06/02 01:01:09;;;;;;;;;;;;;;;15.95;45.42;100022.19;1088389;54;20578;-81
2022/06/02 01:02:13;;;;;;;;;;;;;;;15.95;45.73;100029.41;1087851;54;20014;-81
2022/06/02 01:03:17;;;;;;;;;;;;;;;15.91;45.55;100020.84;1090615;39;20487;-80
2022/06/02 01:04:21;;;;;;;;;;;;;;;15.94;45.48;100025.88;1087965;54;20713;-80
2022/06/02 01:05:32;;;;;;;;;;;;;;;16.00;44.98;100027.03;1088058;54;19943;-80
2022/06/02 01:06:43;;;;;;;;;;;;;;;15.99;45.09;100020.78;1088923;46;20504;-79
2022/06/02 01:07:56;;;;;;;;;;;;;;;15.91;45.74;100034.31;1088616;54;19942;-82
2022/06/02 01:09:07;;;;;;;;;;;;;;;15.98;45.08;100029.06;1088321;54;19933;-81
2022/06/02 01:10:24;;;;;;;;;;;;;;;16.01;45.13;100028.72;1088411;54;19954;-79
2022/06/02 01:11:31;;;;;;;;;;;;;;;16.05;45.13;100035.41;1088400;54;19923;-80
2022/06/02 01:12:41;;;;;;;;;;;;;;;16.11;44.69;100033.84;1088438;54;19942;-81
2022/06/02 01:14:02;;;;;;;;;;;;;;;16.11;44.80;100044.63;1088197;54;20701;-79
2022/06/02 01:15:10;;;;;;;;;;;;;;;16.12;44.96;100035.50;1088188;54;19927;-80
2022/06/02 01:16:17;;;;;;;;;;;;;;;16.15;45.08;100035.16;1088391;54;19950;-80
2022/06/02 01:17:22;;;;;;;;;;;;;;;16.16;44.88;100028.72;1088242;54;19950;-80
2022/06/02 01:18:32;;;;;;;;;;;;;;;16.04;45.44;100036.41;1088216;54;19931;-80
2022/06/02 01:19:50;;;;;;;;;;;;;;;15.94;45.84;100038.50;1088194;54;19927;-79
2022/06/02 01:21:11;;;;;;;;;;;;;;;15.87;46.05;100044.63;1091013;46;19922;-82
2022/06/02 01:22:23;;;;;;;;;;;;;;;15.86;46.05;100044.81;1088701;54;19946;-81
2022/06/02 01:23:44;;;;;;;;;;;;;;;15.78;46.29;100050.22;1088682;54;20206;-82
2022/06/02 01:25:02;;;;;;;;;;;;;;;15.80;46.12;100048.19;1088732;54;19945;-80
2022/06/02 01:26:27;;;;;;;;;;;;;;;15.72;46.28;100049.09;1088685;54;19953;-81
2022/06/02 01:28:00;;;;;;;;;;;;;;;15.66;46.31;100044.41;1088203;54;19950;-80
2022/06/02 01:29:10;;;;;;;;;;;;;;;15.60;46.47;100040.56;1090079;39;20475;-80
2022/06/02 01:30:25;;;;;;;;;;;;;;;15.57;46.77;100038.25;1088414;54;19950;-79
2022/06/02 01:31:34;;;;;;;;;;;;;;;15.53;47.01;100047.69;1088541;54;19949;-81
2022/06/02 01:32:42;;;;;;;;;;;;;;;15.53;46.80;100035.06;1088151;54;19943;-82
2022/06/02 01:33:50;;;;;;;;;;;;;;;15.52;46.79;100040.59;1087970;54;19945;-80
2022/06/02 01:35:00;;;;;;;;;;;;;;;15.48;47.01;100037.44;1088058;54;19946;-80
2022/06/02 01:36:07;;;;;;;;;;;;;;;15.55;46.73;100045.66;1088017;54;20074;-81
2022/06/02 01:37:14;;;;;;;;;;;;;;;15.54;47.24;100035.88;1088392;54;19942;-80
2022/06/02 01:38:20;;;;;;;;;;;;;;;15.52;47.36;100044.16;1088602;46;19949;-81
2022/06/02 01:39:32;;;;;;;;;;;;;;;15.60;46.60;100048.63;1087947;54;19957;-80
2022/06/02 01:40:38;;;;;;;;;;;;;;;15.66;46.79;100045.25;1088416;54;19949;-80
2022/06/02 01:42:00;;;;;;;;;;;;;;;15.60;47.10;100045.94;1088018;54;19950;-83
2022/06/02 01:43:03;;;;;;;;;;;;;;;15.50;47.22;100050.72;1088224;54;19966;-81
2022/06/02 01:44:12;;;;;;;;;;;;;;;15.43;47.46;100043.34;1087971;54;19934;-81
2022/06/02 01:45:16;;;;;;;;;;;;;;;15.45;47.48;100051.25;1088029;54;19947;-80
2022/06/02 01:46:30;;;;;;;;;;;;;;;15.41;47.67;100040.00;1088422;54;19942;-82
2022/06/02 01:47:37;;;;;;;;;;;;;;;15.41;47.63;100040.00;1088446;54;19947;-81
2022/06/02 01:48:44;;;;;;;;;;;;;;;15.48;47.02;100042.81;1088309;54;19959;-81
2022/06/02 01:49:59;;;;;;;;;;;;;;;15.41;47.50;100048.06;1088446;54;19942;-80
2022/06/02 01:51:06;;;;;;;;;;;;;;;15.49;47.04;100049.06;1088256;54;19950;-79
2022/06/02 01:52:17;;;;;;;;;;;;;;;15.50;47.17;100048.88;1087809;54;19943;-81
2022/06/02 01:53:26;;;;;;;;;;;;;;;15.54;47.28;100054.75;1088337;54;20002;-80
2022/06/02 01:55:42;;;;;;;;;;;;;;;15.56;47.15;100050.84;1087103;54;20798;-80
2022/06/02 01:56:57;;;;;;;;;;;;;;;15.60;47.21;100059.41;1088237;54;19943;-81
2022/06/02 01:58:08;;;;;;;;;;;;;;;15.61;46.73;100058.41;1088185;54;19943;-81
2022/06/02 01:59:22;;;;;;;;;;;;;;;15.60;46.94;100057.56;1094022;39;20470;-79
2022/06/02 02:00:26;;;;;;;;;;;;;;;15.57;46.95;100049.84;1088386;54;19927;-80
2022/06/02 02:01:33;;;;;;;;;;;;;;;15.62;46.81;100046.63;1088328;54;20856;-80
2022/06/02 02:02:43;;;;;;;;;;;;;;;15.59;47.03;100055.91;1088327;54;19938;-80
2022/06/02 02:03:51;;;;;;;;;;;;;;;15.56;47.49;100058.94;1088251;54;19947;-79
2022/06/02 02:05:05;;;;;;;;;;;;;;;15.55;47.34;100053.72;1088375;54;19974;-80
2022/06/02 02:06:14;;;;;;;;;;;;;;;15.57;46.96;100059.78;1088438;54;19942;-83
2022/06/02 02:07:19;;;;;;;;;;;;;;;15.55;47.39;100059.13;1089806;39;20494;-82
2022/06/02 02:08:46;;;;;;;;;;;;;;;15.47;47.73;100059.19;1091490;39;20641;-82
2022/06/02 02:09:54;;;;;;;;;;;;;;;15.42;47.84;100065.91;1088080;54;19927;-78
2022/06/02 02:11:05;;;;;;;;;;;;;;;15.44;47.38;100061.19;1090699;39;20449;-82
2022/06/02 02:12:14;;;;;;;;;;;;;;;15.49;47.21;100067.91;1087860;54;19967;-79
2022/06/02 02:13:20;;;;;;;;;;;;;;;15.52;47.23;100070.25;1088384;54;19957;-79
2022/06/02 02:14:35;;;;;;;;;;;;;;;15.53;47.27;100069.22;1088439;54;20637;-80
2022/06/02 02:15:42;;;;;;;;;;;;;;;15.44;47.52;100065.75;1089825;46;20021;-81
2022/06/02 02:16:52;;;;;;;;;;;;;;;15.46;47.65;100068.25;1088053;54;19942;-82
2022/06/02 02:18:04;;;;;;;;;;;;;;;15.46;47.67;100074.47;1087994;54;19966;-81
2022/06/02 02:19:18;;;;;;;;;;;;;;;15.50;47.42;100066.88;1088206;54;19938;-80
2022/06/02 02:20:26;;;;;;;;;;;;;;;15.52;47.45;100072.94;1088309;54;19942;-80
2022/06/02 02:21:35;;;;;;;;;;;;;;;15.53;47.53;100074.63;1088148;54;19950;-83
2022/06/02 02:22:39;;;;;;;;;;;;;;;15.34;48.04;100071.34;1088564;54;19931;-81
2022/06/02 02:23:49;;;;;;;;;;;;;;;15.19;48.88;100070.41;1090065;46;19946;-80
2022/06/02 02:24:59;;;;;;;;;;;;;;;15.15;48.93;100078.00;1088292;54;19960;-79
2022/06/02 02:26:06;;;;;;;;;;;;;;;15.07;49.11;100076.16;1088373;54;19938;-81
2022/06/02 02:27:10;;;;;;;;;;;;;;;14.98;49.10;100074.50;1088520;54;19942;-80
2022/06/02 02:28:19;;;;;;;;;;;;;;;14.94;49.56;100083.94;1088208;54;19999;-83
2022/06/02 02:29:26;;;;;;;;;;;;;;;14.94;49.26;100083.94;1088366;54;19935;-81
2022/06/02 02:30:37;;;;;;;;;;;;;;;14.88;49.57;100081.94;1088439;47;19927;-80
2022/06/02 02:31:42;;;;;;;;;;;;;;;14.96;49.03;100084.59;1088661;39;20467;-80
2022/06/02 02:32:49;;;;;;;;;;;;;;;14.97;49.26;100084.44;1088126;54;19939;-80
2022/06/02 02:33:58;;;;;;;;;;;;;;;14.93;49.56;100080.41;1087578;54;19950;-80
2022/06/02 02:35:06;;;;;;;;;;;;;;;14.89;49.90;100083.63;1087778;54;20002;-79
2022/06/02 02:36:12;;;;;;;;;;;;;;;14.84;49.90;100086.84;1088199;54;19970;-79
2022/06/02 02:37:17;;;;;;;;;;;;;;;14.84;49.71;100078.75;1087732;54;19957;-80
2022/06/02 02:38:28;;;;;;;;;;;;;;;14.89;49.58;100086.31;1087660;54;19947;-79
2022/06/02 02:39:38;;;;;;;;;;;;;;;14.89;49.60;100089.84;1087643;54;19942;-80
2022/06/02 02:40:44;;;;;;;;;;;;;;;14.84;50.09;100086.84;1087620;54;20469;-80
2022/06/02 02:41:47;;;;;;;;;;;;;;;14.87;49.66;100083.81;1087709;54;19927;-79
2022/06/02 02:42:55;;;;;;;;;;;;;;;14.89;49.87;100083.63;1087282;54;19943;-80
2022/06/02 02:44:01;;;;;;;;;;;;;;;14.90;49.81;100083.44;1087038;54;19957;-80
2022/06/02 02:45:09;;;;;;;;;;;;;;;14.88;49.94;100088.16;1086909;54;19942;-80
2022/06/02 02:46:13;;;;;;;;;;;;;;;14.87;49.95;100086.50;1087733;46;19945;-78
2022/06/02 02:47:21;;;;;;;;;;;;;;;14.89;49.76;100083.63;1087745;54;19942;-80
2022/06/02 02:48:29;;;;;;;;;;;;;;;14.90;49.85;100082.63;1087923;39;20463;-79
2022/06/02 02:49:40;;;;;;;;;;;;;;;14.81;50.29;100087.16;1087943;54;19931;-80
2022/06/02 02:50:44;;;;;;;;;;;;;;;14.75;50.57;100088.69;1090164;39;20393;-79
2022/06/02 02:51:51;;;;;;;;;;;;;;;14.68;50.96;100090.38;1087711;54;20062;-81
2022/06/02 02:52:56;;;;;;;;;;;;;;;14.64;51.35;100097.94;1087889;54;19930;-80
2022/06/02 02:54:01;;;;;;;;;;;;;;;14.60;51.17;100093.88;1087659;54;20520;-80
2022/06/02 02:55:08;;;;;;;;;;;;;;;14.68;50.27;100090.38;1087731;54;19934;-79
2022/06/02 02:56:16;;;;;;;;;;;;;;;14.63;50.65;100085.50;1087282;54;19957;-80
2022/06/02 02:57:25;;;;;;;;;;;;;;;14.67;50.88;100086.00;1087805;54;19943;-78
2022/06/02 02:58:30;;;;;;;;;;;;;;;14.67;50.62;100088.72;1087831;54;19947;-80
2022/06/02 02:59:41;;;;;;;;;;;;;;;14.67;51.11;100091.41;1087703;54;20442;-79
2022/06/02 03:00:45;;;;;;;;;;;;;;;14.66;50.82;100095.06;1089883;39;20330;-79
2022/06/02 03:01:54;;;;;;;;;;;;;;;14.58;51.33;100097.75;1087384;54;19951;-81
2022/06/02 03:03:05;;;;;;;;;;;;;;;14.61;50.88;100086.69;1088078;54;19942;-80
2022/06/02 03:04:12;;;;;;;;;;;;;;;14.55;51.67;100095.44;1088143;54;20477;-80
2022/06/02 03:05:23;;;;;;;;;;;;;;;14.53;51.27;100097.44;1087906;54;19951;-80
2022/06/02 03:06:26;;;;;;;;;;;;;;;14.55;51.00;100092.75;1087897;54;19953;-79
2022/06/02 03:07:31;;;;;;;;;;;;;;;14.49;51.89;100092.41;1088227;54;19927;-79
2022/06/02 03:08:38;;;;;;;;;;;;;;;14.48;51.53;100090.72;1088121;54;19938;-80
2022/06/02 03:09:44;;;;;;;;;;;;;;;14.49;51.57;100097.78;1087751;54;20638;-81
2022/06/02 03:10:47;;;;;;;;;;;;;;;14.53;51.33;100089.38;1088424;39;20256;-79
2022/06/02 03:12:00;;;;;;;;;;;;;;;14.50;51.73;100088.69;1088097;54;19998;-79
2022/06/02 03:13:07;;;;;;;;;;;;;;;14.49;52.14;100094.25;1087919;54;19923;-79
2022/06/02 03:14:18;;;;;;;;;;;;;;;14.53;51.46;100090.22;1087800;54;19947;-80
2022/06/02 03:15:22;;;;;;;;;;;;;;;14.58;51.54;100098.63;1087947;54;19998;-79
2022/06/02 03:16:27;;;;;;;;;;;;;;;14.63;51.27;100087.34;1087965;54;19946;-80
2022/06/02 03:17:36;;;;;;;;;;;;;;;14.62;51.98;100094.56;1087856;54;19958;-81
2022/06/02 03:18:54;;;;;;;;;;;;;;;14.63;51.65;100107.00;1087380;54;19943;-79
2022/06/02 03:19:57;;;;;;;;;;;;;;;14.61;52.65;100100.94;1087816;54;20008;-80
2022/06/02 03:21:09;;;;;;;;;;;;;;;14.56;52.75;100102.47;1087718;54;19947;-80
2022/06/02 03:22:16;;;;;;;;;;;;;;;14.54;52.35;100105.34;1087927;46;19966;-79
2022/06/02 03:23:34;;;;;;;;;;;;;;;14.38;53.90;100103.50;1087937;54;20425;-83
2022/06/02 03:24:54;;;;;;;;;;;;;;;14.32;53.32;100106.88;1087775;54;19934;-78
2022/06/02 03:25:59;;;;;;;;;;;;;;;14.34;53.24;100102.16;1088363;31;20425;-80
2022/06/02 03:27:13;;;;;;;;;;;;;;;14.33;53.30;100111.22;1088003;54;19954;-79
2022/06/02 03:28:23;;;;;;;;;;;;;;;14.30;53.45;100103.50;1088119;54;19957;-80
2022/06/02 03:29:28;;;;;;;;;;;;;;;14.30;53.59;100107.03;1087729;54;19942;-79
2022/06/02 03:30:34;;;;;;;;;;;;;;;14.27;53.51;100107.38;1087855;54;19947;-80
2022/06/02 03:31:41;;;;;;;;;;;;;;;14.29;53.53;100104.50;1087654;54;19950;-81
2022/06/02 03:32:50;;;;;;;;;;;;;;;14.27;53.49;100111.88;1088050;54;19930;-80
2022/06/02 03:33:56;;;;;;;;;;;;;;;14.29;53.55;100110.72;1087607;54;19942;-79
2022/06/02 03:35:04;;;;;;;;;;;;;;;14.29;53.46;100109.88;1087758;54;19950;-81
2022/06/02 03:36:13;;;;;;;;;;;;;;;14.24;54.19;100113.06;1087925;54;19951;-82
2022/06/02 03:37:38;;;;;;;;;;;;;;;14.28;53.53;100111.75;1088130;54;20577;-79
2022/06/02 03:38:53;;;;;;;;;;;;;;;14.29;53.43;100109.88;1087418;54;19946;-80
2022/06/02 03:40:08;;;;;;;;;;;;;;;14.23;54.37;100108.69;1087881;54;19939;-82
2022/06/02 03:41:20;;;;;;;;;;;;;;;14.22;54.47;100114.25;1087602;54;19943;-84
2022/06/02 03:42:27;;;;;;;;;;;;;;;14.20;54.27;100117.94;1088534;46;19957;-80
2022/06/02 03:43:36;;;;;;;;;;;;;;;14.23;54.13;100115.94;1087623;54;19939;-79
2022/06/02 03:44:48;;;;;;;;;;;;;;;14.23;54.01;100110.56;1087819;54;19942;-82
2022/06/02 03:45:58;;;;;;;;;;;;;;;14.12;54.64;100104.50;1092207;39;20331;-79
2022/06/02 03:47:09;;;;;;;;;;;;;;;14.13;54.91;100108.00;1088127;39;20770;-80
2022/06/02 03:48:26;;;;;;;;;;;;;;;14.13;54.51;100108.88;1087909;54;20891;-80
2022/06/02 03:49:43;;;;;;;;;;;;;;;14.15;54.32;100109.56;1087411;54;19942;-79
2022/06/02 03:51:00;;;;;;;;;;;;;;;14.17;54.24;100101.31;1087614;54;19957;-80
2022/06/02 03:52:13;;;;;;;;;;;;;;;14.18;53.99;100109.19;1091663;46;19969;-78
2022/06/02 03:53:29;;;;;;;;;;;;;;;14.15;54.53;100114.06;1088287;54;19934;-81
2022/06/02 03:54:52;;;;;;;;;;;;;;;14.13;54.33;100105.31;1088398;47;19930;-81
2022/06/02 03:55:58;;;;;;;;;;;;;;;14.08;55.20;100113.88;1088278;54;19938;-80
2022/06/02 03:57:11;;;;;;;;;;;;;;;14.03;55.24;100108.19;1087406;54;19938;-80
2022/06/02 03:58:20;;;;;;;;;;;;;;;13.97;55.72;100115.06;1088117;54;19943;-81
2022/06/02 03:59:33;;;;;;;;;;;;;;;13.96;54.95;100113.38;1088098;54;19934;-79
2022/06/02 04:00:44;;;;;;;;;;;;;;;13.88;56.06;100107.97;1088073;54;19975;-80
2022/06/02 04:01:53;;;;;;;;;;;;;;;13.88;55.70;100116.91;1088085;54;20049;-81
2022/06/02 04:02:58;;;;;;;;;;;;;;;13.91;55.32;100104.13;1089598;47;19923;-81
2022/06/02 04:04:05;;;;;;;;;;;;;;;13.94;55.22;100112.69;1088072;54;20596;-80
2022/06/02 04:05:17;;;;;;;;;;;;;;;13.91;55.50;100112.19;1088023;54;19954;-79
2022/06/02 04:06:26;;;;;;;;;;;;;;;13.90;55.50;100114.03;1089263;47;19930;-80
2022/06/02 04:07:36;;;;;;;;;;;;;;;13.89;55.36;100110.50;1087846;54;19955;-81
2022/06/02 04:08:55;;;;;;;;;;;;;;;13.91;55.12;100114.88;1087870;54;19946;-80
2022/06/02 04:10:05;;;;;;;;;;;;;;;13.88;55.46;100116.91;1088046;54;20038;-79
2022/06/02 04:11:19;;;;;;;;;;;;;;;13.87;55.55;100112.53;1101455;39;20603;-80
2022/06/02 04:13:56;;;;;;;;;;;;;;;13.75;55.95;100124.59;1087954;54;20002;-82
2022/06/02 04:15:03;;;;;;;;;;;;;;;13.72;56.24;100131.13;1087849;54;19942;-81
2022/06/02 04:16:14;;;;;;;;;;;;;;;13.73;55.83;100124.75;1089553;47;19934;-81
2022/06/02 04:17:20;;;;;;;;;;;;;;;13.78;55.67;100131.47;1088212;54;19950;-80
2022/06/02 04:18:27;;;;;;;;;;;;;;;13.78;55.74;100129.63;1088359;54;19942;-80
2022/06/02 04:21:05;;;;;;;;;;;;;;;13.72;56.26;100127.59;1088447;54;19940;-81
2022/06/02 04:22:15;;;;;;;;;;;;;;;13.76;55.65;100131.63;1088439;54;19945;-79
2022/06/02 04:23:23;;;;;;;;;;;;;;;13.73;55.81;100129.28;1088450;54;19923;-80
2022/06/02 04:24:33;;;;;;;;;;;;;;;13.73;55.76;100131.97;1089260;47;19923;-82
2022/06/02 04:25:39;;;;;;;;;;;;;;;13.71;55.94;100133.97;1088324;54;19987;-82
2022/06/02 04:26:54;;;;;;;;;;;;;;;13.75;55.62;100139.84;1088408;54;19927;-77
2022/06/02 04:27:59;;;;;;;;;;;;;;;13.75;55.70;100139.84;1089507;47;19951;-76
2022/06/02 04:29:10;;;;;;;;;;;;;;;13.75;55.81;100132.66;1088388;54;19950;-78
2022/06/02 04:30:17;;;;;;;;;;;;;;;13.78;55.60;100136.84;1088775;47;19942;-77
2022/06/02 04:31:27;;;;;;;;;;;;;;;13.81;55.38;100134.66;1103360;31;20575;-76
2022/06/02 04:32:35;;;;;;;;;;;;;;;13.86;55.50;100137.72;1088356;54;19927;-76
2022/06/02 04:33:45;;;;;;;;;;;;;;;13.91;55.23;100144.44;1090111;47;19949;-76
2022/06/02 04:34:52;;;;;;;;;;;;;;;13.92;55.56;100135.38;1088450;54;19957;-76
2022/06/02 04:36:01;;;;;;;;;;;;;;;13.93;55.28;100142.44;1088355;54;19946;-77
2022/06/02 04:37:07;;;;;;;;;;;;;;;13.86;55.55;100145.78;1088281;54;19958;-77
2022/06/02 04:38:32;;;;;;;;;;;;;;;13.91;55.38;100142.59;1088225;54;19943;-75
2022/06/02 04:39:38;;;;;;;;;;;;;;;13.94;55.35;100144.09;1088106;54;19923;-77
2022/06/02 04:40:48;;;;;;;;;;;;;;;13.91;55.74;100144.44;1087806;54;19934;-76
2022/06/02 04:41:53;;;;;;;;;;;;;;;13.92;55.93;100138.91;1087608;54;19943;-76
2022/06/02 04:43:01;;;;;;;;;;;;;;;13.92;55.49;100144.28;1088094;54;20571;-76
2022/06/02 04:44:07;;;;;;;;;;;;;;;13.94;55.28;100147.63;1088184;54;19942;-77
2022/06/02 04:45:15;;;;;;;;;;;;;;;13.92;55.88;100135.38;1088103;54;19955;-76
2022/06/02 04:46:30;;;;;;;;;;;;;;;13.93;55.61;100137.06;1090349;39;20531;-76
2022/06/02 04:47:37;;;;;;;;;;;;;;;13.98;55.38;100150.84;1090041;47;19928;-78
2022/06/02 04:48:44;;;;;;;;;;;;;;;14.00;55.43;100141.63;1088657;39;20463;-78
2022/06/02 04:49:50;;;;;;;;;;;;;;;14.03;55.28;100154.69;1088033;54;19951;-76
2022/06/02 04:50:56;;;;;;;;;;;;;;;13.94;55.53;100149.47;1088152;54;19934;-78
2022/06/02 04:52:07;;;;;;;;;;;;;;;13.94;55.41;100149.47;1088017;54;19942;-78
2022/06/02 04:53:27;;;;;;;;;;;;;;;13.93;55.42;100145.09;1088045;54;19935;-78
2022/06/02 04:54:37;;;;;;;;;;;;;;;13.97;55.32;100154.53;1088474;54;19967;-76
2022/06/02 04:55:47;;;;;;;;;;;;;;;14.04;55.00;100145.63;1088470;54;19998;-78
2022/06/02 04:56:52;;;;;;;;;;;;;;;14.10;54.91;100151.38;1092096;39;20550;-79
2022/06/02 04:57:59;;;;;;;;;;;;;;;14.01;55.39;100148.69;1087455;54;19942;-78
2022/06/02 04:59:07;;;;;;;;;;;;;;;14.04;55.50;100150.19;1088230;54;19950;-77
2022/06/02 05:00:15;;;;;;;;;;;;;;;13.97;55.90;100149.16;1088232;54;19954;-77
2022/06/02 05:01:33;;;;;;;;;;;;;;;14.00;55.71;100152.38;1088397;54;19950;-77
2022/06/02 05:02:41;;;;;;;;;;;;;;;14.07;55.63;100154.38;1088320;54;19926;-77
2022/06/02 05:03:48;;;;;;;;;;;;;;;14.09;55.03;100158.59;1088444;54;19934;-77
2022/06/02 05:04:53;;;;;;;;;;;;;;;14.13;55.31;100154.56;1093359;39;20471;-77
2022/06/02 05:06:03;;;;;;;;;;;;;;;14.17;55.06;100158.59;1088354;54;19957;-78
2022/06/02 05:07:09;;;;;;;;;;;;;;;14.21;54.95;100164.50;1088452;54;19944;-77
2022/06/02 05:08:31;;;;;;;;;;;;;;;14.23;55.05;100158.94;1088381;54;19939;-76
2022/06/02 05:09:37;;;;;;;;;;;;;;;14.20;55.14;100166.34;1088423;54;19957;-75
2022/06/02 05:10:44;;;;;;;;;;;;;;;14.13;55.81;100159.94;1088318;54;20127;-76
2022/06/02 05:12:00;;;;;;;;;;;;;;;14.14;55.40;100161.63;1088380;54;19950;-78
2022/06/02 05:13:09;;;;;;;;;;;;;;;14.15;55.08;100162.47;1088347;54;19943;-78
2022/06/02 05:14:23;;;;;;;;;;;;;;;14.12;55.35;100163.63;1088025;54;19946;-78
2022/06/02 05:15:37;;;;;;;;;;;;;;;14.12;55.51;100162.81;1088176;54;19950;-75
2022/06/02 05:16:46;;;;;;;;;;;;;;;14.11;55.29;100172.69;1088470;54;19942;-77
2022/06/02 05:18:00;;;;;;;;;;;;;;;14.12;55.49;100171.69;1088320;54;19979;-75
2022/06/02 05:19:16;;;;;;;;;;;;;;;14.13;55.58;100168.00;1090278;39;20550;-77
2022/06/02 05:20:44;;;;;;;;;;;;;;;14.19;55.23;100164.66;1087960;54;19983;-78
2022/06/02 05:21:53;;;;;;;;;;;;;;;14.24;55.29;100166.00;1088974;46;19942;-75
2022/06/02 05:23:13;;;;;;;;;;;;;;;14.33;54.66;100165.00;1088016;54;19945;-75
2022/06/02 05:24:34;;;;;;;;;;;;;;;14.39;54.44;100164.34;1088084;54;19943;-75
2022/06/02 05:25:51;;;;;;;;;;;;;;;14.45;54.19;100166.34;1088010;54;19943;-77
2022/06/02 05:27:07;;;;;;;;;;;;;;;14.49;53.88;100170.41;1088099;54;19942;-77
2022/06/02 05:28:23;;;;;;;;;;;;;;;14.55;54.05;100166.19;1088093;54;20809;-77
2022/06/02 05:29:38;;;;;;;;;;;;;;;14.55;54.03;100176.13;1088333;54;19966;-78
2022/06/02 05:30:53;;;;;;;;;;;;;;;14.55;53.96;100174.28;1087779;54;20598;-78
2022/06/02 05:32:20;;;;;;;;;;;;;;;14.56;53.89;100175.09;1088019;46;19943;-76
2022/06/02 05:33:38;;;;;;;;;;;;;;;14.66;53.61;100171.28;1088338;54;19939;-78
2022/06/02 05:34:56;;;;;;;;;;;;;;;14.66;53.96;100178.47;1088349;54;19935;-77
2022/06/02 05:36:20;;;;;;;;;;;;;;;14.70;53.65;100189.75;1088586;46;19934;-78
2022/06/02 05:37:31;;;;;;;;;;;;;;;14.75;53.29;100182.88;1088397;54;20922;-78
2022/06/02 05:38:55;;;;;;;;;;;;;;;14.83;53.52;100184.72;1088407;54;19943;-77
2022/06/02 05:40:04;;;;;;;;;;;;;;;14.91;53.15;100189.28;1092991;39;20846;-79
2022/06/02 05:41:16;;;;;;;;;;;;;;;14.92;52.89;100199.03;1088022;54;19950;-77
2022/06/02 05:42:25;;;;;;;;;;;;;;;15.01;52.99;100191.78;1087873;54;19950;-76
2022/06/02 05:43:31;;;;;;;;;;;;;;;15.04;52.84;100194.97;1087885;54;19950;-77
2022/06/02 05:44:41;;;;;;;;;;;;;;;15.08;52.77;100188.22;1087992;54;19943;-77
2022/06/02 05:45:51;;;;;;;;;;;;;;;14.99;52.70;100197.34;1088013;54;20690;-78
2022/06/02 05:47:05;;;;;;;;;;;;;;;15.03;52.49;100190.56;1088934;46;19954;-77
2022/06/02 05:48:12;;;;;;;;;;;;;;;14.98;52.73;100190.25;1087539;54;19955;-78
2022/06/02 05:49:19;;;;;;;;;;;;;;;14.95;52.42;100190.59;1087879;54;19973;-77
2022/06/02 05:50:28;;;;;;;;;;;;;;;14.91;53.06;100181.19;1089385;46;20039;-78
2022/06/02 05:51:36;;;;;;;;;;;;;;;14.84;53.05;100182.84;1087882;54;19941;-78
2022/06/02 05:52:41;;;;;;;;;;;;;;;14.89;53.14;100180.50;1088039;54;19943;-77
2022/06/02 05:53:51;;;;;;;;;;;;;;;14.95;53.02;100186.06;1088020;54;20681;-77
2022/06/02 05:55:06;;;;;;;;;;;;;;;15.03;53.04;100193.28;1088083;54;19949;-77
2022/06/02 05:56:17;;;;;;;;;;;;;;;15.07;52.76;100189.25;1087990;54;19974;-77
2022/06/02 05:57:32;;;;;;;;;;;;;;;15.11;52.39;100190.56;1088041;54;19935;-77
2022/06/02 05:58:54;;;;;;;;;;;;;;;15.18;52.59;100187.19;1087668;54;19935;-79
2022/06/02 06:00:05;;;;;;;;;;;;;;;15.25;52.51;100185.50;1091927;39;20590;-78
2022/06/02 06:01:13;;;;;;;;;;;;;;;15.23;52.48;100188.38;1090047;39;20548;-78
2022/06/02 06:02:25;;;;;;;;;;;;;;;15.26;52.22;100185.31;1087971;54;19943;-77
2022/06/02 06:03:47;;;;;;;;;;;;;;;15.28;52.38;100186.00;1087929;54;19991;-78
2022/06/02 06:05:11;;;;;;;;;;;;;;;15.24;51.89;100190.06;1087525;54;19968;-77
2022/06/02 06:06:19;;;;;;;;;;;;;;;15.36;51.87;100193.22;1087956;54;19927;-78
2022/06/02 06:07:27;;;;;;;;;;;;;;;15.39;51.66;100195.56;1088095;54;19943;-78
2022/06/02 06:08:40;;;;;;;;;;;;;;;15.38;51.90;100185.81;1088157;54;19950;-80
2022/06/02 06:09:49;;;;;;;;;;;;;;;15.36;51.96;100179.75;1087948;54;19954;-81
2022/06/02 06:10:57;;;;;;;;;;;;;;;15.36;51.70;100176.19;1088023;54;19954;-77
2022/06/02 06:12:16;;;;;;;;;;;;;;;15.33;51.92;100181.97;1087876;54;19927;-78
2022/06/02 06:13:27;;;;;;;;;;;;;;;15.28;51.31;100190.56;1087982;54;20601;-80
2022/06/02 06:14:35;;;;;;;;;;;;;;;15.27;51.43;100181.63;1087970;54;19943;-78
2022/06/02 06:15:42;;;;;;;;;;;;;;;15.28;51.03;100185.16;1088157;54;19927;-78
2022/06/02 06:16:51;;;;;;;;;;;;;;;15.36;51.08;100181.59;1088063;54;19950;-77
2022/06/02 06:17:56;;;;;;;;;;;;;;;15.46;50.58;100186.78;1088248;54;19927;-78
2022/06/02 06:19:09;;;;;;;;;;;;;;;15.50;50.67;100182.72;1091366;46;19943;-82
2022/06/02 06:20:19;;;;;;;;;;;;;;;15.56;50.50;100187.44;1089647;39;20538;-79